Time;durP1;ratioP1;P1;durP2;ratioP2;P2;SDS_P1;SDS_P2;PMS_P1;PMS_P2;Temp;Humidity;BMP_temperature;BMP_pressure;BME280_temperature;BME280_humidity;BME280_pressure;Samples;Min_cycle;Max_cycle;Signal;HPM_P1;HPM_P2
2021/04/20 00:02:22;;;;;;;48.67;36.67;;;9.70;82.90;;;;;;5110909;28;20357;-67
2021/04/20 00:04:48;;;;;;;43.23;34.63;;;9.60;83.00;;;;;;5111295;28;20101;-67
2021/04/20 00:07:13;;;;;;;39.13;32.07;;;9.60;83.90;;;;;;5111510;28;20054;-67
2021/04/20 00:09:39;;;;;;;43.53;33.93;;;9.60;83.00;;;;;;5111011;28;20511;-67
2021/04/20 00:12:05;;;;;;;46.47;34.70;;;9.50;83.00;;;;;;5111087;28;20039;-67
2021/04/20 00:14:31;;;;;;;48.63;36.37;;;9.50;83.00;;;;;;5110601;28;20056;-68
2021/04/20 00:16:57;;;;;;;47.10;35.47;;;9.50;83.20;;;;;;5108661;28;20723;-68
2021/04/20 00:19:22;;;;;;;45.73;35.70;;;9.40;83.30;;;;;;5109311;28;20044;-67
2021/04/20 00:21:48;;;;;;;44.07;32.83;;;9.40;83.50;;;;;;5108829;28;20386;-68
2021/04/20 00:24:14;;;;;;;45.37;35.23;;;9.40;83.60;;;;;;5112861;28;20124;-68
2021/04/20 00:26:40;;;;;;;49.67;37.10;;;9.30;83.60;;;;;;5113526;28;20090;-67
2021/04/20 00:29:07;;;;;;;42.97;34.10;;;9.30;83.80;;;;;;5112241;28;20051;-67
2021/04/20 00:31:32;;;;;;;43.93;34.67;;;9.30;83.80;;;;;;5113309;28;20515;-68
2021/04/20 00:33:58;;;;;;;44.30;34.77;;;9.30;83.70;;;;;;5114039;28;20293;-67
2021/04/20 00:36:24;;;;;;;49.10;34.60;;;9.30;83.50;;;;;;5114190;28;20051;-68
2021/04/20 00:38:49;;;;;;;45.80;36.33;;;9.30;83.50;;;;;;5114677;28;20055;-68
2021/04/20 00:41:16;;;;;;;51.53;37.97;;;9.30;83.50;;;;;;5114842;28;20157;-67
2021/04/20 00:43:43;;;;;;;51.53;39.03;;;9.30;83.70;;;;;;5114073;28;20051;-67
2021/04/20 00:46:11;;;;;;;50.20;37.17;;;9.20;84.00;;;;;;5114696;28;20297;-68
2021/04/20 00:48:37;;;;;;;47.60;35.33;;;9.20;84.20;;;;;;5115004;28;20297;-67
2021/04/20 00:51:05;;;;;;;47.57;35.97;;;9.10;84.10;;;;;;5113808;28;20294;-67
2021/04/20 00:53:31;;;;;;;43.33;34.50;;;9.10;84.10;;;;;;5113709;28;20366;-67
2021/04/20 00:55:57;;;;;;;45.13;34.33;;;9.10;84.00;;;;;;5114255;28;20651;-67
2021/04/20 00:58:23;;;;;;;43.83;33.53;;;9.00;84.00;;;;;;5113859;28;20048;-67
2021/04/20 01:00:50;;;;;;;50.10;37.57;;;9.00;84.00;;;;;;5114262;28;20051;-67
2021/04/20 01:03:16;;;;;;;41.83;32.20;;;9.00;84.20;;;;;;5114764;28;20340;-67
2021/04/20 01:05:42;;;;;;;50.00;38.00;;;8.90;84.20;;;;;;5113438;28;20796;-67
2021/04/20 01:08:11;;;;;;;42.90;33.70;;;8.90;84.60;;;;;;5114299;28;20299;-67
2021/04/20 01:10:45;;;;;;;49.13;34.90;;;8.80;85.00;;;;;;5114634;28;20296;-67
2021/04/20 01:13:12;;;;;;;49.50;36.90;;;8.70;84.80;;;;;;5113319;28;20380;-68
2021/04/20 01:15:42;;;;;;;50.80;37.80;;;8.70;85.90;;;;;;5114397;28;20342;-67
2021/04/20 01:18:36;;;;;;;45.17;33.83;;;8.70;85.30;;;;;;5113306;28;20289;-67
2021/04/20 01:21:10;;;;;;;40.07;31.93;;;8.70;85.40;;;;;;5113628;28;20774;-67
2021/04/20 01:23:57;;;;;;;45.90;35.50;;;8.60;85.30;;;;;;5114048;28;20297;-67
2021/04/20 01:26:25;;;;;;;52.03;37.90;;;8.60;85.30;;;;;;5113607;28;20299;-67
2021/04/20 01:28:51;;;;;;;47.93;35.77;;;8.60;85.50;;;;;;5113911;28;20321;-67
2021/04/20 01:31:18;;;;;;;52.47;38.87;;;8.60;85.50;;;;;;5113641;28;20812;-67
2021/04/20 01:33:44;;;;;;;51.10;36.37;;;8.60;85.60;;;;;;5111425;28;20328;-67
2021/04/20 01:36:12;;;;;;;55.83;40.60;;;8.60;85.80;;;;;;5113337;28;20297;-67
2021/04/20 01:38:41;;;;;;;46.73;36.17;;;8.60;85.90;;;;;;5113869;28;20931;-67
2021/04/20 01:41:07;;;;;;;56.30;41.20;;;8.60;86.00;;;;;;5113033;28;20646;-67
2021/04/20 01:43:33;;;;;;;51.03;38.93;;;8.60;86.10;;;;;;5113911;28;20293;-67
2021/04/20 01:45:59;;;;;;;49.63;37.63;;;8.60;86.40;;;;;;5113621;28;20040;-67
2021/04/20 01:48:25;;;;;;;59.77;43.03;;;8.50;86.50;;;;;;5112910;28;20300;-67
2021/04/20 01:50:51;;;;;;;58.17;41.77;;;8.50;86.80;;;;;;5113251;28;20073;-67
2021/04/20 01:53:17;;;;;;;63.93;45.57;;;8.50;87.00;;;;;;5112708;28;20070;-67
2021/04/20 01:55:43;;;;;;;57.37;42.73;;;8.50;87.30;;;;;;5113304;28;20301;-67
2021/04/20 01:58:09;;;;;;;56.83;41.90;;;8.50;87.30;;;;;;5113307;28;20473;-68
2021/04/20 02:00:39;;;;;;;67.33;45.17;;;8.50;87.30;;;;;;5112856;28;20155;-67
2021/04/20 02:03:09;;;;;;;62.20;44.73;;;8.60;87.40;;;;;;5113162;28;20786;-67
2021/04/20 02:05:38;;;;;;;54.07;39.63;;;8.60;87.40;;;;;;5113247;28;20321;-67
2021/04/20 02:08:05;;;;;;;57.87;41.03;;;8.60;87.30;;;;;;5112046;28;20302;-67
2021/04/20 02:10:31;;;;;;;59.30;43.80;;;8.70;87.30;;;;;;5113321;28;20293;-67
2021/04/20 02:12:57;;;;;;;61.33;44.03;;;8.70;87.20;;;;;;5112555;28;20329;-67
2021/04/20 02:15:23;;;;;;;62.23;46.20;;;8.70;87.20;;;;;;5112228;28;20796;-67
2021/04/20 02:17:50;;;;;;;66.33;46.50;;;8.70;87.50;;;;;;5112658;28;20301;-67
2021/04/20 02:20:16;;;;;;;63.10;46.40;;;8.60;87.70;;;;;;5112870;28;20309;-67
2021/04/20 02:22:45;;;;;;;64.40;45.63;;;8.60;88.00;;;;;;5112129;28;20350;-67
2021/04/20 02:25:13;;;;;;;63.73;46.27;;;8.50;88.10;;;;;;5112876;28;20047;-67
2021/04/20 02:27:40;;;;;;;59.20;42.43;;;8.50;88.40;;;;;;5112956;28;20305;-67
2021/04/20 02:30:11;;;;;;;66.50;45.67;;;8.40;88.50;;;;;;5111452;28;20666;-67
2021/04/20 02:32:38;;;;;;;65.15;44.28;;;8.40;88.60;;;;;;5112770;28;20338;-67
2021/04/20 02:35:06;;;;;;;63.57;45.47;;;8.40;88.60;;;;;;5112537;28;20403;-67
2021/04/20 02:37:34;;;;;;;64.10;44.43;;;8.40;88.50;;;;;;5112135;28;20301;-67
2021/04/20 02:39:59;;;;;;;60.20;44.07;;;8.40;88.60;;;;;;5111990;28;20305;-67
2021/04/20 02:42:26;;;;;;;58.93;43.70;;;8.50;88.50;;;;;;5112640;28;20293;-67
2021/04/20 02:44:53;;;;;;;62.13;42.83;;;8.50;88.60;;;;;;5111621;28;20059;-67
2021/04/20 02:47:21;;;;;;;58.17;41.87;;;8.50;88.50;;;;;;5111557;28;20293;-67
2021/04/20 02:49:47;;;;;;;61.93;45.17;;;8.60;88.60;;;;;;5111711;28;20376;-66
2021/04/20 02:52:14;;;;;;;57.87;41.90;;;8.60;88.60;;;;;;5112294;28;20293;-67
2021/04/20 02:54:40;;;;;;;53.43;39.33;;;8.60;88.60;;;;;;5112514;28;20312;-67
2021/04/20 02:57:06;;;;;;;59.80;43.33;;;8.60;88.50;;;;;;5111386;28;20655;-67
2021/04/20 02:59:32;;;;;;;57.93;42.77;;;8.70;88.40;;;;;;5112182;28;20051;-67
2021/04/20 03:02:02;;;;;;;54.57;42.47;;;8.70;88.40;;;;;;5111625;28;20785;-67
2021/04/20 03:04:29;;;;;;;58.63;42.10;;;8.80;88.60;;;;;;5111665;28;20362;-67
2021/04/20 03:06:54;;;;;;;56.80;41.23;;;8.80;88.60;;;;;;5111860;28;20684;-67
2021/04/20 03:09:20;;;;;;;56.67;42.97;;;8.70;88.80;;;;;;5112233;28;20073;-66
2021/04/20 03:11:57;;;;;;;62.30;43.73;;;8.70;88.80;;;;;;5111257;28;20055;-66
2021/04/20 03:14:25;;;;;;;52.80;40.67;;;8.70;88.90;;;;;;5110975;28;20052;-66
2021/04/20 03:16:50;;;;;;;57.27;43.07;;;8.70;88.90;;;;;;5111565;28;20368;-66
2021/04/20 03:19:17;;;;;;;50.10;38.97;;;8.70;88.90;;;;;;5110919;28;20397;-66
2021/04/20 03:21:45;;;;;;;53.37;41.43;;;8.70;88.90;;;;;;5111943;28;20101;-67
2021/04/20 03:24:32;;;;;;;49.57;38.63;;;8.70;88.80;;;;;;5111766;28;20299;-67
2021/04/20 03:26:58;;;;;;;56.87;40.03;;;8.70;88.80;;;;;;5110770;28;20635;-67
2021/04/20 03:29:24;;;;;;;53.00;39.10;;;8.80;88.70;;;;;;5111977;28;20305;-67
2021/04/20 03:31:51;;;;;;;54.40;40.53;;;8.70;88.60;;;;;;5110885;28;20293;-68
2021/04/20 03:34:33;;;;;;;51.77;40.13;;;8.70;88.50;;;;;;5111706;28;20151;-67
2021/04/20 03:37:30;;;;;;;51.47;39.33;;;8.80;88.60;;;;;;5111320;28;20343;-67
2021/04/20 03:39:59;;;;;;;50.93;36.20;;;8.80;88.70;;;;;;5109397;28;20311;-67
2021/04/20 03:42:31;;;;;;;44.67;34.93;;;8.70;88.60;;;;;;5112069;28;20297;-67
2021/04/20 03:45:04;;;;;;;45.17;35.00;;;8.70;88.50;;;;;;5111299;28;20346;-67
2021/04/20 03:47:45;;;;;;;48.87;37.20;;;8.70;88.50;;;;;;5111086;28;20302;-68
2021/04/20 03:50:25;;;;;;;54.20;40.00;;;8.70;88.50;;;;;;5111634;28;20344;-67
2021/04/20 03:52:59;;;;;;;52.80;40.17;;;8.60;88.50;;;;;;5110871;28;20134;-67
2021/04/20 03:55:27;;;;;;;58.77;42.63;;;8.60;88.70;;;;;;5111876;28;20397;-67
2021/04/20 03:57:54;;;;;;;59.57;39.53;;;8.50;88.70;;;;;;5112976;28;20289;-67
2021/04/20 04:00:22;;;;;;;54.33;42.77;;;8.60;88.80;;;;;;5115192;28;20313;-67
2021/04/20 04:02:50;;;;;;;61.13;45.17;;;8.60;88.80;;;;;;5115450;28;20296;-67
2021/04/20 04:05:20;;;;;;;56.00;41.90;;;8.50;88.90;;;;;;5115114;28;20789;-67
2021/04/20 04:07:49;;;;;;;64.77;44.80;;;8.40;89.20;;;;;;5113791;28;20294;-68
2021/04/20 04:10:16;;;;;;;61.77;43.37;;;8.30;89.40;;;;;;5114750;28;20305;-67
2021/04/20 04:12:47;;;;;;;64.07;45.50;;;8.30;89.50;;;;;;5114697;28;20374;-67
2021/04/20 04:15:14;;;;;;;58.43;42.87;;;8.20;89.60;;;;;;5114301;28;20315;-66
2021/04/20 04:17:45;;;;;;;62.53;42.80;;;8.10;89.60;;;;;;5114951;28;20305;-66
2021/04/20 04:20:13;;;;;;;61.30;43.03;;;8.00;89.90;;;;;;5114509;28;20721;-66
2021/04/20 04:22:46;;;;;;;59.33;44.53;;;8.00;90.00;;;;;;5114139;28;20298;-67
2021/04/20 04:25:14;;;;;;;56.80;42.87;;;7.90;90.00;;;;;;5114511;28;20305;-67
2021/04/20 04:27:43;;;;;;;56.87;42.07;;;7.90;90.00;;;;;;5114696;28;20297;-67
2021/04/20 04:30:10;;;;;;;49.13;36.87;;;7.90;90.00;;;;;;5113682;28;20301;-67
2021/04/20 04:32:39;;;;;;;59.43;44.83;;;7.90;90.00;;;;;;5114862;28;20297;-67
2021/04/20 04:35:06;;;;;;;66.53;45.57;;;7.80;90.00;;;;;;5110765;28;20301;-67
2021/04/20 04:37:33;;;;;;;60.67;40.87;;;7.80;90.10;;;;;;5114535;28;20696;-67
2021/04/20 04:40:01;;;;;;;59.30;43.87;;;7.80;90.10;;;;;;5113728;28;20342;-67
2021/04/20 04:42:27;;;;;;;61.93;44.40;;;7.80;90.10;;;;;;5113271;28;20304;-66
2021/04/20 04:44:53;;;;;;;42.03;32.50;;;7.80;90.50;;;;;;5112210;28;20293;-67
2021/04/20 04:47:18;;;;;;;65.90;44.43;;;7.90;90.10;;;;;;5113112;28;20044;-67
2021/04/20 04:49:46;;;;;;;59.60;41.13;;;7.80;90.10;;;;;;5111585;28;20138;-67
2021/04/20 04:52:13;;;;;;;54.23;39.63;;;7.70;90.30;;;;;;5111477;28;20059;-66
2021/04/20 04:54:39;;;;;;;60.80;44.23;;;7.80;90.30;;;;;;5114398;28;20316;-67
2021/04/20 04:57:06;;;;;;;63.80;45.83;;;7.70;90.30;;;;;;5113130;28;20289;-67
2021/04/20 04:59:32;;;;;;;59.00;42.07;;;7.80;90.40;;;;;;5114007;28;20442;-67
2021/04/20 05:01:59;;;;;;;61.73;43.83;;;7.80;90.30;;;;;;5113072;28;20399;-67
2021/04/20 05:04:25;;;;;;;60.53;43.47;;;7.80;90.30;;;;;;5113755;28;20309;-67
2021/04/20 05:06:52;;;;;;;63.60;45.33;;;7.90;90.30;;;;;;5113352;28;20301;-66
2021/04/20 05:09:20;;;;;;;62.20;44.97;;;7.90;90.30;;;;;;5113202;28;20297;-67
2021/04/20 05:11:47;;;;;;;64.27;44.30;;;7.90;90.40;;;;;;5113213;28;20294;-68
2021/04/20 05:14:18;;;;;;;55.03;41.13;;;7.90;90.40;;;;;;5113777;28;20326;-67
2021/04/20 05:16:48;;;;;;;61.03;44.83;;;8.00;90.40;;;;;;5113706;28;20285;-66
2021/04/20 05:19:26;;;;;;;69.43;46.83;;;8.00;90.40;;;;;;5110151;28;21138;-66
2021/04/20 05:21:52;;;;;;;51.80;39.27;;;8.10;90.40;;;;;;5113820;28;20290;-66
2021/04/20 05:24:21;;;;;;;60.50;44.03;;;8.10;90.40;;;;;;5111399;28;20362;-66
2021/04/20 05:26:47;;;;;;;58.30;43.63;;;8.10;90.40;;;;;;5112876;28;20044;-67
2021/04/20 05:29:14;;;;;;;62.23;43.77;;;8.20;90.40;;;;;;5113435;28;20278;-66
2021/04/20 05:31:40;;;;;;;59.63;44.47;;;8.20;90.40;;;;;;5113284;28;20381;-67
2021/04/20 05:34:07;;;;;;;60.30;43.43;;;8.30;90.50;;;;;;5113575;28;20424;-66
2021/04/20 05:36:34;;;;;;;55.97;42.40;;;8.40;90.50;;;;;;5111341;28;20035;-67
2021/04/20 05:39:11;;;;;;;58.87;42.33;;;8.40;90.50;;;;;;5112171;28;20339;-66
2021/04/20 05:41:38;;;;;;;56.47;41.67;;;8.50;90.50;;;;;;5110518;28;20278;-66
2021/04/20 05:44:06;;;;;;;43.93;33.27;;;8.70;90.50;;;;;;5111082;27;20793;-67
2021/04/20 05:46:36;;;;;;;48.57;38.07;;;8.80;90.30;;;;;;5112319;28;20782;-67
2021/04/20 05:49:03;;;;;;;50.97;39.33;;;9.00;90.20;;;;;;5112478;28;20766;-66
2021/04/20 05:51:28;;;;;;;50.90;39.87;;;9.10;90.10;;;;;;5113361;28;20358;-66
2021/04/20 05:53:54;;;;;;;39.83;33.40;;;9.20;90.20;;;;;;5112226;28;20297;-66
2021/04/20 05:56:22;;;;;;;47.47;40.97;;;9.40;90.00;;;;;;5113034;28;20481;-66
2021/04/20 05:58:56;;;;;;;46.03;37.33;;;9.40;89.70;;;;;;5113128;28;20454;-67
2021/04/20 06:01:24;;;;;;;46.17;40.67;;;9.40;89.60;;;;;;5112747;28;20313;-67
2021/04/20 06:03:51;;;;;;;51.53;39.93;;;9.40;89.70;;;;;;5112984;28;20705;-67
2021/04/20 06:06:22;;;;;;;45.93;38.83;;;9.40;89.50;;;;;;5112740;28;20309;-66
2021/04/20 06:08:51;;;;;;;52.35;38.58;;;9.50;89.70;;;;;;5109806;28;20296;-66
2021/04/20 06:11:19;;;;;;;44.03;34.63;;;9.60;89.50;;;;;;5112603;28;20473;-68
2021/04/20 06:13:45;;;;;;;38.57;31.27;;;9.80;88.90;;;;;;5109925;28;20289;-67
2021/04/20 06:16:12;;;;;;;39.70;34.50;;;9.80;88.10;;;;;;5112584;28;20289;-68
2021/04/20 06:18:39;;;;;;;40.00;32.97;;;9.90;87.40;;;;;;5112766;28;20039;-68
2021/04/20 06:21:06;;;;;;;40.53;34.17;;;9.90;86.70;;;;;;5110960;28;20811;-68
2021/04/20 06:23:36;;;;;;;35.67;31.20;;;9.90;86.60;;;;;;5112604;28;20051;-67
2021/04/20 06:26:04;;;;;;;37.37;32.07;;;10.00;86.10;;;;;;5111322;28;20321;-67
2021/04/20 06:28:36;;;;;;;39.87;33.90;;;10.00;85.80;;;;;;5111780;28;20055;-67
2021/04/20 06:31:02;;;;;;;32.47;27.92;;;10.10;85.80;;;;;;5111570;28;20376;-66
2021/04/20 06:33:32;;;;;;;36.73;30.80;;;10.20;85.20;;;;;;5112192;28;20404;-66
2021/04/20 06:36:02;;;;;;;40.73;31.03;;;10.30;85.30;;;;;;5111233;28;20048;-66
2021/04/20 06:38:29;;;;;;;40.60;29.27;;;10.50;85.70;;;;;;5112374;28;20052;-67
2021/04/20 06:40:56;;;;;;;37.77;29.97;;;10.70;83.60;;;;;;5111982;28;20100;-67
2021/04/20 06:43:48;;;;;;;39.20;29.00;;;10.80;82.50;;;;;;5111744;28;20484;-67
2021/04/20 06:46:20;;;;;;;38.60;29.38;;;10.80;81.90;;;;;;5112255;28;20152;-67
2021/04/20 06:49:11;;;;;;;35.27;27.70;;;10.80;81.80;;;;;;5111257;28;20044;-67
2021/04/20 06:51:39;;;;;;;37.10;28.80;;;10.80;81.30;;;;;;5112860;28;20048;-67
2021/04/20 06:54:11;;;;;;;35.57;28.87;;;10.80;81.40;;;;;;5111882;28;20389;-67
2021/04/20 06:56:40;;;;;;;38.57;27.87;;;10.90;81.00;;;;;;5111748;28;20099;-68
2021/04/20 06:59:34;;;;;;;34.20;27.73;;;10.90;80.70;;;;;;5111795;28;20055;-68
2021/04/20 07:02:09;;;;;;;31.60;24.67;;;10.90;79.50;;;;;;5109749;28;20043;-67
2021/04/20 07:04:45;;;;;;;24.47;20.73;;;11.00;80.00;;;;;;5111515;28;20122;-67
2021/04/20 07:07:26;;;;;;;22.90;20.07;;;11.20;78.40;;;;;;5112077;28;20489;-68
2021/04/20 07:10:24;;;;;;;23.93;18.13;;;11.40;77.90;;;;;;5111505;28;20059;-66
2021/04/20 07:12:56;;;;;;;24.90;20.10;;;11.70;75.40;;;;;;5107395;28;20289;-66
2021/04/20 07:15:25;;;;;;;30.33;21.93;;;11.80;75.80;;;;;;5112157;28;20047;-66
2021/04/20 07:18:03;;;;;;;26.63;20.27;;;12.00;74.40;;;;;;5111150;28;20046;-66
2021/04/20 07:20:57;;;;;;;23.33;17.93;;;12.10;73.30;;;;;;5112158;28;20104;-67
2021/04/20 07:23:41;;;;;;;20.30;16.27;;;12.20;70.70;;;;;;5112161;28;20048;-67
2021/04/20 07:26:18;;;;;;;18.23;16.07;;;12.20;71.70;;;;;;5111057;28;20054;-67
2021/04/20 07:29:32;;;;;;;21.90;16.87;;;12.30;71.10;;;;;;5111770;28;20044;-67
2021/04/20 07:32:06;;;;;;;19.93;16.33;;;12.50;69.40;;;;;;5096413;28;20096;-67
2021/04/20 07:34:43;;;;;;;20.63;15.53;;;12.60;69.70;;;;;;5111975;28;20059;-66
2021/04/20 07:37:38;;;;;;;19.53;15.67;;;12.70;69.40;;;;;;5111784;28;20135;-67
2021/04/20 07:40:39;;;;;;;16.67;14.97;;;12.70;68.00;;;;;;5110622;28;20039;-68
2021/04/20 07:43:25;;;;;;;18.80;15.07;;;12.70;67.70;;;;;;5111267;28;20044;-67
2021/04/20 07:46:03;;;;;;;16.37;12.73;;;12.80;67.80;;;;;;5110879;28;20299;-68
2021/04/20 07:48:55;;;;;;;15.77;13.77;;;12.80;66.60;;;;;;5111806;28;20450;-67
2021/04/20 07:51:55;;;;;;;15.90;14.10;;;12.90;64.30;;;;;;5111709;28;20050;-69
2021/04/20 07:54:43;;;;;;;16.37;13.80;;;13.30;64.50;;;;;;5111817;28;20054;-68
2021/04/20 07:57:17;;;;;;;16.40;13.77;;;13.60;64.50;;;;;;5111442;28;20052;-68
2021/04/20 08:00:00;;;;;;;19.03;14.47;;;14.00;65.40;;;;;;5110355;28;20060;-68
2021/04/20 08:03:05;;;;;;;19.30;14.00;;;14.20;62.60;;;;;;5111578;28;20100;-68
2021/04/20 08:05:39;;;;;;;16.93;14.00;;;14.30;59.20;;;;;;5089584;28;20543;-67
2021/04/20 08:08:11;;;;;;;18.30;13.43;;;14.50;63.40;;;;;;5110056;28;20047;-67
2021/04/20 08:10:56;;;;;;;15.03;13.03;;;14.70;61.80;;;;;;5111856;28;20058;-68
2021/04/20 08:13:46;;;;;;;15.37;12.50;;;14.80;61.90;;;;;;5111122;28;20043;-68
2021/04/20 08:16:35;;;;;;;15.77;12.00;;;15.00;58.40;;;;;;5111157;28;20445;-66
2021/04/20 08:19:10;;;;;;;15.07;12.67;;;15.40;57.70;;;;;;5110992;28;20057;-67
2021/04/20 08:21:40;;;;;;;16.80;12.80;;;15.70;59.20;;;;;;5110774;28;20044;-66
2021/04/20 08:24:11;;;;;;;14.23;12.60;;;15.80;58.70;;;;;;5111262;28;20088;-66
2021/04/20 08:26:43;;;;;;;16.38;13.05;;;15.80;58.60;;;;;;5111336;28;20047;-66
2021/04/20 08:29:16;;;;;;;17.73;12.93;;;15.70;57.40;;;;;;5110316;28;20051;-67
2021/04/20 08:31:55;;;;;;;18.73;12.53;;;15.80;57.40;;;;;;5111306;28;20047;-67
2021/04/20 08:34:32;;;;;;;17.27;13.03;;;16.00;54.10;;;;;;5110679;28;20044;-67
2021/04/20 08:37:01;;;;;;;14.80;12.80;;;16.10;55.00;;;;;;5110547;28;20044;-67
2021/04/20 08:39:46;;;;;;;15.23;13.17;;;16.00;55.20;;;;;;5111240;28;20054;-67
2021/04/20 08:42:17;;;;;;;14.87;12.83;;;16.00;55.00;;;;;;5109743;28;20058;-67
2021/04/20 08:45:25;;;;;;;17.40;13.02;;;16.00;54.60;;;;;;5111915;28;20044;-67
2021/04/20 08:48:23;;;;;;;16.37;12.87;;;16.20;52.50;;;;;;5114808;28;20059;-67
2021/04/20 08:50:58;;;;;;;16.50;12.13;;;16.50;52.60;;;;;;5114378;28;20532;-66
2021/04/20 08:54:09;;;;;;;16.20;11.90;;;16.50;52.80;;;;;;5114512;28;20448;-67
2021/04/20 08:57:02;;;;;;;20.60;12.80;;;16.70;51.60;;;;;;5114028;28;20436;-67
2021/04/20 09:00:02;;;;;;;18.00;13.00;;;16.80;53.70;;;;;;5114612;28;20052;-68
2021/04/20 09:02:53;;;;;;;15.27;11.57;;;17.00;52.50;;;;;;5114194;28;20047;-67
2021/04/20 09:05:35;;;;;;;15.00;11.45;;;17.10;49.40;;;;;;5114594;28;20048;-67
2021/04/20 09:08:08;;;;;;;15.50;11.53;;;16.90;48.50;;;;;;5114172;27;20059;-67
2021/04/20 09:10:56;;;;;;;15.10;11.40;;;16.90;52.00;;;;;;5113919;28;20081;-67
2021/04/20 09:13:26;;;;;;;17.27;10.87;;;16.80;48.80;;;;;;5114457;28;20051;-67
2021/04/20 09:16:03;;;;;;;12.93;10.27;;;16.70;50.70;;;;;;5114107;28;20073;-67
2021/04/20 09:18:38;;;;;;;16.93;11.07;;;16.80;48.80;;;;;;5113063;28;20043;-67
2021/04/20 09:21:12;;;;;;;15.47;10.77;;;17.00;48.60;;;;;;5113612;28;20101;-67
2021/04/20 09:23:47;;;;;;;15.00;10.50;;;17.00;48.80;;;;;;5113593;27;20510;-68
2021/04/20 09:26:41;;;;;;;20.07;9.63;;;17.10;48.70;;;;;;5113935;28;20051;-67
2021/04/20 09:29:20;;;;;;;14.20;9.03;;;17.10;46.90;;;;;;5113497;28;20074;-68
2021/04/20 09:31:59;;;;;;;13.57;10.53;;;17.20;47.00;;;;;;5112932;27;20498;-67
2021/04/20 09:34:35;;;;;;;14.37;8.63;;;17.30;46.50;;;;;;5114126;28;20043;-67
2021/04/20 09:37:02;;;;;;;14.13;9.57;;;17.20;46.00;;;;;;5113408;28;20059;-67
2021/04/20 09:39:34;;;;;;;12.63;9.33;;;17.20;46.60;;;;;;5112887;28;20412;-67
2021/04/20 09:42:02;;;;;;;11.80;9.43;;;17.20;46.10;;;;;;5113267;28;20052;-67
2021/04/20 09:44:41;;;;;;;14.67;9.83;;;17.30;46.20;;;;;;5113402;28;20075;-67
2021/04/20 09:47:28;;;;;;;11.80;9.50;;;17.40;45.80;;;;;;5113586;28;20044;-67
2021/04/20 09:50:07;;;;;;;10.93;8.93;;;17.40;45.60;;;;;;5113169;28;20081;-67
2021/04/20 09:52:58;;;;;;;13.67;10.10;;;17.40;45.10;;;;;;5113249;28;20054;-68
2021/04/20 09:55:32;;;;;;;12.75;9.15;;;17.40;45.00;;;;;;5113294;28;20104;-67
2021/04/20 09:57:59;;;;;;;12.77;9.27;;;17.40;45.80;;;;;;5112958;28;20040;-67
2021/04/20 10:00:26;;;;;;;18.27;8.93;;;17.40;44.50;;;;;;5112682;28;20058;-67
2021/04/20 10:03:21;;;;;;;12.47;9.77;;;17.20;44.90;;;;;;5112601;28;20510;-67
2021/04/20 10:06:13;;;;;;;12.67;9.13;;;17.00;44.20;;;;;;5112304;28;20492;-67
2021/04/20 10:08:57;;;;;;;13.50;9.40;;;16.80;45.50;;;;;;5112965;28;20047;-67
2021/04/20 10:11:31;;;;;;;16.37;8.60;;;16.80;45.90;;;;;;5112919;28;20046;-67
2021/04/20 10:14:16;;;;;;;15.60;8.67;;;16.80;44.20;;;;;;5111924;28;20052;-67
2021/04/20 10:16:52;;;;;;;11.47;8.30;;;16.80;43.80;;;;;;5112783;28;20048;-67
2021/04/20 10:19:23;;;;;;;13.97;9.40;;;16.70;44.30;;;;;;5112882;28;20096;-67
2021/04/20 10:22:07;;;;;;;13.23;9.03;;;16.70;43.70;;;;;;5111936;28;20044;-67
2021/04/20 10:24:35;;;;;;;15.97;9.10;;;16.70;44.10;;;;;;5112989;28;20507;-67
2021/04/20 10:27:15;;;;;;;17.13;10.10;;;16.80;43.90;;;;;;5111856;28;20098;-67
2021/04/20 10:29:57;;;;;;;11.97;8.30;;;16.80;44.20;;;;;;5110856;28;20062;-68
2021/04/20 10:32:34;;;;;;;11.38;7.82;;;16.90;43.70;;;;;;5112924;28;20066;-68
2021/04/20 10:35:03;;;;;;;13.10;8.07;;;16.90;43.50;;;;;;5111494;28;20212;-68
2021/04/20 10:37:37;;;;;;;12.23;9.33;;;16.90;43.90;;;;;;5112454;28;20412;-67
2021/04/20 10:40:08;;;;;;;14.40;8.37;;;17.00;43.90;;;;;;5111965;28;20055;-67
2021/04/20 10:42:36;;;;;;;12.82;9.00;;;17.00;44.10;;;;;;5112219;28;20109;-68
2021/04/20 10:45:04;;;;;;;13.33;7.83;;;17.00;44.60;;;;;;5112162;27;20131;-68
2021/04/20 10:47:32;;;;;;;11.97;8.67;;;17.00;43.80;;;;;;5112563;28;20537;-67
2021/04/20 10:49:59;;;;;;;14.07;7.90;;;16.90;43.50;;;;;;5111427;28;20143;-68
2021/04/20 10:52:30;;;;;;;11.53;8.33;;;16.90;43.50;;;;;;5112295;28;20496;-67
2021/04/20 10:55:12;;;;;;;14.75;8.27;;;17.00;44.00;;;;;;5111085;28;20044;-68
2021/04/20 10:57:44;;;;;;;16.33;9.00;;;17.10;44.90;;;;;;5112394;28;20047;-67
2021/04/20 11:00:15;;;;;;;11.43;8.40;;;17.20;43.50;;;;;;5112176;28;20135;-68
2021/04/20 11:02:51;;;;;;;13.17;7.83;;;17.20;42.90;;;;;;5111523;28;20476;-68
2021/04/20 11:05:21;;;;;;;13.70;8.00;;;17.10;43.10;;;;;;5112139;28;20127;-68
2021/04/20 11:07:48;;;;;;;13.77;8.30;;;17.20;42.80;;;;;;5111443;28;20044;-68
2021/04/20 11:10:15;;;;;;;13.87;7.00;;;17.20;42.30;;;;;;5111203;28;20086;-68
2021/04/20 11:12:42;;;;;;;11.87;6.83;;;17.40;41.70;;;;;;5111946;28;20085;-68
2021/04/20 11:15:09;;;;;;;12.33;7.03;;;17.40;41.20;;;;;;5111798;28;20078;-68
2021/04/20 11:17:49;;;;;;;10.50;6.40;;;17.40;41.70;;;;;;5111441;28;20143;-68
2021/04/20 11:20:18;;;;;;;12.40;6.27;;;17.50;42.20;;;;;;5112012;28;20574;-68
2021/04/20 11:23:07;;;;;;;10.37;6.73;;;17.70;40.60;;;;;;5111637;28;20044;-68
2021/04/20 11:25:48;;;;;;;8.40;5.27;;;17.70;39.70;;;;;;5112009;28;20055;-68
2021/04/20 11:28:26;;;;;;;10.23;6.27;;;17.70;39.80;;;;;;5112123;28;20377;-68
2021/04/20 11:31:05;;;;;;;8.77;7.20;;;17.90;39.70;;;;;;5110714;28;20095;-67
2021/04/20 11:33:43;;;;;;;8.80;5.83;;;17.90;40.40;;;;;;5112000;28;20503;-68
2021/04/20 11:36:27;;;;;;;6.97;5.50;;;18.00;39.40;;;;;;5111776;28;20177;-68
2021/04/20 11:38:57;;;;;;;11.70;6.17;;;18.10;38.20;;;;;;5110655;28;20055;-68
2021/04/20 11:41:30;;;;;;;11.00;6.00;;;18.10;38.70;;;;;;5112488;28;20054;-68
2021/04/20 11:44:01;;;;;;;10.77;5.60;;;18.10;37.70;;;;;;5111173;28;20136;-68
2021/04/20 11:46:29;;;;;;;14.32;5.60;;;18.10;38.20;;;;;;5111519;28;20071;-68
2021/04/20 11:49:07;;;;;;;8.20;5.47;;;18.30;38.80;;;;;;5110793;28;20052;-68
2021/04/20 11:51:35;;;;;;;9.70;6.07;;;18.40;38.30;;;;;;5110343;28;20040;-68
2021/04/20 11:54:01;;;;;;;8.43;6.20;;;18.40;37.90;;;;;;5111146;28;20055;-68
2021/04/20 11:56:36;;;;;;;9.40;5.60;;;18.50;37.70;;;;;;5111557;28;20569;-68
2021/04/20 11:59:03;;;;;;;8.37;5.30;;;18.60;37.90;;;;;;5110311;28;20071;-68
2021/04/20 12:01:29;;;;;;;8.87;5.40;;;18.60;37.00;;;;;;5111866;28;20055;-68
2021/04/20 12:03:59;;;;;;;8.80;4.90;;;18.70;35.90;;;;;;5111127;28;20486;-68
2021/04/20 12:06:35;;;;;;;12.10;5.83;;;18.60;35.40;;;;;;5110986;28;20056;-68
2021/04/20 12:09:02;;;;;;;7.70;5.13;;;18.60;35.50;;;;;;5111025;28;20059;-68
2021/04/20 12:11:30;;;;;;;8.50;4.87;;;18.60;35.70;;;;;;5111620;28;20047;-68
2021/04/20 12:13:57;;;;;;;9.13;5.50;;;18.60;35.30;;;;;;5109976;28;20044;-68
2021/04/20 12:16:23;;;;;;;8.27;5.13;;;18.50;35.00;;;;;;5111445;28;20051;-68
2021/04/20 12:18:52;;;;;;;12.63;6.00;;;18.50;35.20;;;;;;5112515;28;20044;-68
2021/04/20 12:21:23;;;;;;;9.17;5.50;;;18.50;35.00;;;;;;5114268;28;20048;-68
2021/04/20 12:23:53;;;;;;;11.73;5.30;;;18.50;35.30;;;;;;5115105;28;20126;-68
2021/04/20 12:26:19;;;;;;;10.40;5.70;;;18.60;35.30;;;;;;5114232;28;20056;-68
2021/04/20 12:28:50;;;;;;;8.03;4.83;;;18.60;35.40;;;;;;5115001;28;20074;-67
2021/04/20 12:31:17;;;;;;;9.75;5.28;;;18.60;35.30;;;;;;5114503;28;20059;-68
2021/04/20 12:33:47;;;;;;;5.80;4.30;;;18.60;35.10;;;;;;5114088;28;20043;-67
2021/04/20 12:36:47;;;;;;;10.40;4.60;;;18.60;34.90;;;;;;5114689;28;20066;-68
2021/04/20 12:39:23;;;;;;;8.97;3.87;;;18.70;34.80;;;;;;5114937;28;20047;-68
2021/04/20 12:41:50;;;;;;;10.10;4.07;;;18.90;35.00;;;;;;5113992;28;20396;-68
2021/04/20 12:44:21;;;;;;;8.03;4.10;;;18.90;34.10;;;;;;5112879;28;20514;-69
2021/04/20 12:46:47;;;;;;;7.57;3.80;;;18.90;33.40;;;;;;5103732;28;20072;-68
2021/04/20 12:49:15;;;;;;;7.43;3.57;;;18.80;33.00;;;;;;5106160;28;20035;-67
2021/04/20 12:51:42;;;;;;;6.03;3.93;;;18.80;33.20;;;;;;5111330;28;20053;-68
2021/04/20 12:54:11;;;;;;;5.13;2.90;;;18.90;33.30;;;;;;5111532;28;20090;-66
2021/04/20 12:56:40;;;;;;;6.50;3.13;;;18.90;33.60;;;;;;5110767;28;20423;-67
2021/04/20 12:59:09;;;;;;;5.50;3.23;;;18.90;32.60;;;;;;5111393;28;20044;-68
2021/04/20 13:01:36;;;;;;;7.60;2.90;;;18.90;33.90;;;;;;5110769;28;20138;-68
2021/04/20 13:04:03;;;;;;;5.40;3.27;;;18.90;32.40;;;;;;5111093;28;20081;-68